createdAt,value
2022-11-17T00:00:16.460Z,87.23
2022-11-17T00:02:42.827Z,87.27
2022-11-17T00:05:09.143Z,87.28
2022-11-17T00:07:35.542Z,87.10
2022-11-17T00:10:01.789Z,86.94
2022-11-17T00:12:32.579Z,86.72
2022-11-17T00:14:54.480Z,86.83
2022-11-17T00:17:20.799Z,86.67
2022-11-17T00:19:47.144Z,86.76
2022-11-17T00:22:13.484Z,86.84
2022-11-17T00:24:39.837Z,86.93
2022-11-17T00:27:06.176Z,87.08
2022-11-17T00:29:32.569Z,87.03
2022-11-17T00:31:58.950Z,86.98
2022-11-17T00:34:25.270Z,87.13
2022-11-17T00:36:51.591Z,87.41
2022-11-17T00:39:18.992Z,87.54
2022-11-17T00:41:46.448Z,87.48
2022-11-17T00:44:12.772Z,87.25
2022-11-17T00:46:39.155Z,87.01
2022-11-17T00:49:05.847Z,86.64
2022-11-17T00:51:32.187Z,86.96
2022-11-17T00:53:58.639Z,87.05
2022-11-17T00:56:24.982Z,86.89
2022-11-17T00:58:51.329Z,86.95
2022-11-17T01:01:17.817Z,87.13
2022-11-17T01:03:44.094Z,87.47
2022-11-17T01:06:10.434Z,87.46
2022-11-17T01:08:36.781Z,87.00
2022-11-17T01:11:03.155Z,86.59
2022-11-17T01:13:29.497Z,86.63
2022-11-17T01:15:55.839Z,86.70
2022-11-17T01:18:22.167Z,86.47
2022-11-17T01:20:48.508Z,86.27
2022-11-17T01:23:14.952Z,86.28
2022-11-17T01:25:41.263Z,85.86
2022-11-17T01:28:07.635Z,85.76
2022-11-17T01:30:33.980Z,85.91
2022-11-17T01:33:00.332Z,85.68
2022-11-17T01:35:26.647Z,85.88
2022-11-17T01:37:53.003Z,85.80
2022-11-17T01:40:19.344Z,85.99
2022-11-17T01:42:45.732Z,86.07
2022-11-17T01:45:12.105Z,85.74
2022-11-17T01:47:38.433Z,86.22
2022-11-17T01:50:04.874Z,86.15
2022-11-17T01:52:31.125Z,85.74
2022-11-17T01:54:57.504Z,86.04
2022-11-17T01:57:23.835Z,86.02
2022-11-17T01:59:50.156Z,85.92
2022-11-17T02:02:16.501Z,85.59
2022-11-17T02:04:42.842Z,85.37
2022-11-17T02:07:09.229Z,85.56
2022-11-17T02:09:35.531Z,85.08
2022-11-17T02:12:01.896Z,85.00
2022-11-17T02:14:28.243Z,84.86
2022-11-17T02:16:54.596Z,84.83
2022-11-17T02:19:20.913Z,84.75
2022-11-17T02:21:47.239Z,84.64
2022-11-17T02:24:13.559Z,84.85
2022-11-17T02:26:39.944Z,85.01
2022-11-17T02:29:06.266Z,85.19
2022-11-17T02:31:32.623Z,85.14
2022-11-17T02:33:58.976Z,84.94
2022-11-17T02:36:25.358Z,84.75
2022-11-17T02:38:51.699Z,84.83
2022-11-17T02:41:18.041Z,84.72
2022-11-17T02:43:44.397Z,84.54
2022-11-17T02:46:10.730Z,84.53
2022-11-17T02:48:37.073Z,84.22
2022-11-17T02:51:03.408Z,84.09
2022-11-17T02:53:29.776Z,84.23
2022-11-17T02:55:56.098Z,84.22
2022-11-17T02:58:22.439Z,84.38
2022-11-17T03:00:48.817Z,84.44
2022-11-17T03:03:15.147Z,84.48
2022-11-17T03:05:41.473Z,84.60
2022-11-17T03:08:07.794Z,84.51
2022-11-17T03:10:34.134Z,84.39
2022-11-17T03:13:00.483Z,84.22
2022-11-17T03:15:26.821Z,84.30
2022-11-17T03:17:53.145Z,84.34
2022-11-17T03:20:19.501Z,84.54
2022-11-17T03:22:45.854Z,84.67
2022-11-17T03:25:12.170Z,84.35
2022-11-17T03:27:38.550Z,84.13
2022-11-17T03:30:04.869Z,84.59
2022-11-17T03:32:31.213Z,84.71
2022-11-17T03:34:57.594Z,85.04
2022-11-17T03:37:23.914Z,85.19
2022-11-17T03:39:50.257Z,85.27
2022-11-17T03:42:16.589Z,85.34
2022-11-17T03:44:42.952Z,85.46
2022-11-17T03:47:09.297Z,85.43
2022-11-17T03:49:35.618Z,85.42
2022-11-17T03:52:01.999Z,85.65
2022-11-17T03:54:28.342Z,86.00
2022-11-17T03:56:54.688Z,85.86
2022-11-17T03:59:21.047Z,86.35
2022-11-17T04:01:47.494Z,86.56
2022-11-17T04:04:13.700Z,86.65
2022-11-17T04:06:40.094Z,86.52
2022-11-17T04:09:06.418Z,86.84
2022-11-17T04:11:32.856Z,86.96
2022-11-17T04:13:59.232Z,86.91
2022-11-17T04:16:25.595Z,86.77
2022-11-17T04:18:57.464Z,86.34
2022-11-17T04:21:18.302Z,86.27
2022-11-17T04:23:44.649Z,86.20
2022-11-17T04:26:11.005Z,86.45
2022-11-17T04:28:37.366Z,86.49
2022-11-17T04:31:03.686Z,86.35
2022-11-17T04:33:30.029Z,86.12
2022-11-17T04:35:56.413Z,85.78
2022-11-17T04:38:22.755Z,85.83
2022-11-17T04:40:49.080Z,86.26
2022-11-17T04:43:15.462Z,86.03
2022-11-17T04:45:41.787Z,85.86
2022-11-17T04:48:08.111Z,86.02
2022-11-17T04:50:34.442Z,86.00
2022-11-17T04:53:00.801Z,86.02
2022-11-17T04:55:27.128Z,86.26
2022-11-17T04:57:53.450Z,86.29
2022-11-17T05:00:19.841Z,86.32
2022-11-17T05:02:46.217Z,86.32
2022-11-17T05:05:12.513Z,86.81
2022-11-17T05:07:38.905Z,87.47
2022-11-17T05:10:05.245Z,87.92
2022-11-17T05:12:31.634Z,88.34
2022-11-17T05:14:58.029Z,88.48
2022-11-17T05:17:24.350Z,88.96
2022-11-17T05:19:50.712Z,89.56
2022-11-17T05:22:17.057Z,89.76
2022-11-17T05:24:43.409Z,89.74
2022-11-17T05:27:09.748Z,89.91
2022-11-17T05:29:36.096Z,90.16
2022-11-17T05:32:02.445Z,90.29
2022-11-17T05:34:28.792Z,90.23
2022-11-17T05:36:55.128Z,90.53
2022-11-17T05:39:21.457Z,90.44
2022-11-17T05:41:47.800Z,90.39
2022-11-17T05:44:14.186Z,90.76
2022-11-17T05:46:40.477Z,90.77
2022-11-17T05:49:06.866Z,90.70
2022-11-17T05:51:33.144Z,90.54
2022-11-17T05:53:59.517Z,90.34
2022-11-17T05:56:25.862Z,90.61
2022-11-17T05:58:52.238Z,90.56
2022-11-17T06:01:18.566Z,90.61
2022-11-17T06:03:44.894Z,90.45
2022-11-17T06:06:11.235Z,90.59
2022-11-17T06:08:37.589Z,90.54
2022-11-17T06:11:03.942Z,90.54
2022-11-17T06:13:30.277Z,90.35
2022-11-17T06:15:56.615Z,90.25
2022-11-17T06:18:23.002Z,90.31
2022-11-17T06:20:49.290Z,90.39
2022-11-17T06:23:15.651Z,90.30
2022-11-17T06:25:41.991Z,90.23
2022-11-17T06:28:08.342Z,90.39
2022-11-17T06:30:34.690Z,90.34
2022-11-17T06:33:01.024Z,90.53
2022-11-17T06:35:27.366Z,90.58
2022-11-17T06:37:53.708Z,90.14
2022-11-17T06:40:20.046Z,90.24
2022-11-17T06:42:46.370Z,90.38
2022-11-17T06:45:12.759Z,90.46
2022-11-17T06:47:39.102Z,90.97
2022-11-17T06:50:05.438Z,91.35
2022-11-17T06:52:31.841Z,91.72
2022-11-17T06:54:58.203Z,91.96
2022-11-17T06:57:24.615Z,92.52
2022-11-17T06:59:51.118Z,92.57
2022-11-17T07:02:17.509Z,93.00
2022-11-17T07:04:43.865Z,93.15
2022-11-17T07:07:10.334Z,93.27
2022-11-17T07:09:36.634Z,93.63
2022-11-17T07:12:03.025Z,93.88
2022-11-17T07:14:29.383Z,93.85
2022-11-17T07:16:55.815Z,94.05
2022-11-17T07:19:22.250Z,94.47
2022-11-17T07:21:48.629Z,94.35
2022-11-17T07:24:15.023Z,94.36
2022-11-17T07:26:41.403Z,94.24
2022-11-17T07:29:07.756Z,94.37
2022-11-17T07:31:34.200Z,94.39
2022-11-17T07:34:00.535Z,94.51
2022-11-17T07:36:26.922Z,95.78
2022-11-17T07:38:53.306Z,96.17
2022-11-17T07:41:19.681Z,96.29
2022-11-17T07:43:46.041Z,96.22
2022-11-17T07:46:12.429Z,96.67
2022-11-17T07:48:39.098Z,96.68
2022-11-17T07:51:05.199Z,97.05
2022-11-17T07:53:31.562Z,97.14
2022-11-17T07:55:57.948Z,97.15
2022-11-17T07:58:24.313Z,97.37
2022-11-17T08:00:50.749Z,97.08
2022-11-17T08:03:17.095Z,96.76
2022-11-17T08:05:43.957Z,96.75
2022-11-17T08:08:09.832Z,96.63
2022-11-17T08:10:36.212Z,96.49
2022-11-17T08:13:02.607Z,96.19
2022-11-17T08:15:29.003Z,96.47
2022-11-17T08:17:55.401Z,96.63
2022-11-17T08:20:21.781Z,96.43
2022-11-17T08:22:48.152Z,96.58
2022-11-17T08:25:14.542Z,96.41
2022-11-17T08:27:40.935Z,96.82
2022-11-17T08:32:51.459Z,97.00
2022-11-17T08:35:17.840Z,97.19
2022-11-17T08:37:44.197Z,97.26
2022-11-17T08:40:10.580Z,97.30
2022-11-17T08:42:36.939Z,97.67
2022-11-17T08:45:03.348Z,97.44
2022-11-17T08:47:29.703Z,97.44
2022-11-17T08:49:56.084Z,97.78
2022-11-17T08:52:22.483Z,98.35
2022-11-17T08:54:48.867Z,97.86
2022-11-17T08:57:15.319Z,97.32
2022-11-17T08:59:41.603Z,96.75
2022-11-17T09:02:08.022Z,96.72
2022-11-17T09:04:34.409Z,97.25
2022-11-17T09:07:00.816Z,96.96
2022-11-17T09:09:27.209Z,97.08
2022-11-17T09:11:53.486Z,96.79
2022-11-17T09:14:19.846Z,96.10
2022-11-17T09:16:46.215Z,94.72
2022-11-17T09:19:12.554Z,96.19
2022-11-17T09:21:38.887Z,95.12
2022-11-17T09:24:05.245Z,94.10
2022-11-17T09:26:31.610Z,93.54
2022-11-17T09:28:57.959Z,94.13
2022-11-17T09:31:24.339Z,94.22
2022-11-17T09:36:34.578Z,92.77
2022-11-17T09:39:00.967Z,92.28
2022-11-17T09:41:27.291Z,91.35
2022-11-17T09:43:53.651Z,89.45
2022-11-17T09:46:19.983Z,87.37
2022-11-17T09:48:46.417Z,85.81
2022-11-17T09:51:12.708Z,82.65
2022-11-17T09:53:39.090Z,75.89
2022-11-17T09:56:05.434Z,73.87
2022-11-17T09:58:31.842Z,72.76
2022-11-17T10:00:58.163Z,70.53
2022-11-17T10:03:24.564Z,69.84
2022-11-17T10:05:50.925Z,68.81
2022-11-17T10:08:17.280Z,68.34
2022-11-17T10:10:43.614Z,67.88
2022-11-17T10:13:10.043Z,66.62
2022-11-17T10:15:36.371Z,65.15
2022-11-17T10:18:02.734Z,64.63
2022-11-17T10:20:29.123Z,64.51
2022-11-17T10:22:55.499Z,64.93
2022-11-17T10:25:21.849Z,65.08
2022-11-17T10:27:48.253Z,64.94
2022-11-17T10:30:14.584Z,65.36
2022-11-17T10:32:46.897Z,66.75
2022-11-17T10:35:07.348Z,67.31
2022-11-17T10:37:33.728Z,67.89
2022-11-17T10:40:00.051Z,67.07
2022-11-17T10:42:26.455Z,68.62
2022-11-17T10:44:52.812Z,70.56
2022-11-17T10:47:19.188Z,71.48
2022-11-17T10:49:45.510Z,70.90
2022-11-17T10:52:11.913Z,69.15
2022-11-17T10:54:38.243Z,70.08
2022-11-17T10:57:04.639Z,68.30
2022-11-17T10:59:31.004Z,67.54
2022-11-17T11:01:57.459Z,66.68
2022-11-17T11:04:23.839Z,65.75
2022-11-17T11:06:50.261Z,65.79
2022-11-17T11:09:16.536Z,66.15
2022-11-17T11:11:42.962Z,66.72
2022-11-17T11:14:09.287Z,66.54
2022-11-17T11:16:35.644Z,66.19
2022-11-17T11:19:02.019Z,66.39
2022-11-17T11:21:28.400Z,66.36
2022-11-17T11:23:54.788Z,64.33
2022-11-17T11:26:21.143Z,63.43
2022-11-17T11:28:52.709Z,62.84
2022-11-17T11:31:13.886Z,63.11
2022-11-17T11:33:40.256Z,62.77
2022-11-17T11:36:06.611Z,63.86
2022-11-17T11:38:32.991Z,64.29
2022-11-17T11:40:59.370Z,64.89
2022-11-17T11:43:25.703Z,65.14
2022-11-17T11:45:54.326Z,64.17
2022-11-17T11:48:20.689Z,63.45
2022-11-17T11:50:47.093Z,63.69
2022-11-17T11:53:13.427Z,62.98
2022-11-17T11:55:39.780Z,62.60
2022-11-17T11:58:06.118Z,62.32
2022-11-17T12:00:32.465Z,61.83
2022-11-17T12:02:58.842Z,62.25
2022-11-17T12:05:25.172Z,62.46
2022-11-17T12:07:51.495Z,62.28
2022-11-17T12:10:17.913Z,63.28
2022-11-17T12:12:44.269Z,62.77
2022-11-17T12:15:10.683Z,63.39
2022-11-17T12:17:36.999Z,63.35
2022-11-17T12:20:09.182Z,63.91
2022-11-17T12:22:29.703Z,64.51
2022-11-17T12:24:56.095Z,64.87
2022-11-17T12:27:22.423Z,65.42
2022-11-17T12:29:48.816Z,65.71
2022-11-17T12:32:15.203Z,66.02
2022-11-17T12:34:41.583Z,66.17
2022-11-17T12:37:07.945Z,66.94
2022-11-17T12:39:34.337Z,67.34
2022-11-17T12:42:00.679Z,67.72
2022-11-17T12:44:27.047Z,65.31
2022-11-17T12:46:53.409Z,63.55
2022-11-17T12:49:19.836Z,63.49
2022-11-17T12:51:46.160Z,64.68
2022-11-17T12:54:12.833Z,65.06
2022-11-17T12:56:38.865Z,65.22
2022-11-17T12:59:05.195Z,65.09
2022-11-17T13:01:31.592Z,65.14
2022-11-17T13:03:57.931Z,65.00
2022-11-17T13:06:39.490Z,64.73
2022-11-17T13:08:50.641Z,63.86
2022-11-17T13:11:16.972Z,64.14
2022-11-17T13:13:46.889Z,63.18
2022-11-17T13:16:09.768Z,61.08
2022-11-17T13:18:36.114Z,59.75
2022-11-17T13:21:02.586Z,60.55
2022-11-17T13:23:28.961Z,60.41
2022-11-17T13:25:55.292Z,60.62
2022-11-17T13:28:22.960Z,60.39
2022-11-17T13:30:48.008Z,59.36
2022-11-17T13:33:14.370Z,58.65
2022-11-17T13:35:40.701Z,57.58
2022-11-17T13:38:07.076Z,58.16
2022-11-17T13:40:33.480Z,58.81
2022-11-17T13:42:59.820Z,59.24
2022-11-17T13:45:26.170Z,59.87
2022-11-17T13:47:52.579Z,60.32
2022-11-17T13:50:19.019Z,60.38
2022-11-17T13:52:47.046Z,61.24
2022-11-17T13:55:11.800Z,61.46
2022-11-17T13:57:38.161Z,61.97
2022-11-17T14:00:04.512Z,62.20
2022-11-17T14:02:30.843Z,61.69
2022-11-17T14:04:57.229Z,62.26
2022-11-17T14:07:23.606Z,62.50
2022-11-17T14:09:49.919Z,62.63
2022-11-17T14:12:16.252Z,62.76
2022-11-17T14:14:42.600Z,62.66
2022-11-17T14:17:09.013Z,62.67
2022-11-17T14:19:35.357Z,62.90
2022-11-17T14:22:01.714Z,63.51
2022-11-17T14:24:28.137Z,63.77
2022-11-17T14:26:54.501Z,64.14
2022-11-17T14:29:20.882Z,64.34
2022-11-17T14:31:47.237Z,64.50
2022-11-17T14:34:13.885Z,64.79
2022-11-17T14:36:39.972Z,65.03
2022-11-17T14:39:06.397Z,65.04
2022-11-17T14:41:32.732Z,65.36
2022-11-17T14:43:59.147Z,65.65
2022-11-17T14:46:25.513Z,65.89
2022-11-17T14:48:51.860Z,66.07
2022-11-17T14:51:18.302Z,66.30
2022-11-17T14:53:44.684Z,66.47
2022-11-17T14:56:11.021Z,66.91
2022-11-17T14:58:37.400Z,67.32
2022-11-17T15:01:03.755Z,67.81
2022-11-17T15:03:30.160Z,68.34
2022-11-17T15:05:56.445Z,69.94
2022-11-17T15:08:22.817Z,71.00
2022-11-17T15:10:49.176Z,71.44
2022-11-17T15:13:15.559Z,72.61
2022-11-17T15:15:41.891Z,72.92
2022-11-17T15:18:08.302Z,74.07
2022-11-17T15:20:34.665Z,74.07
2022-11-17T15:23:03.469Z,74.65
2022-11-17T15:25:27.416Z,75.18
2022-11-17T15:27:53.797Z,75.39
2022-11-17T15:30:20.151Z,75.30
2022-11-17T15:32:46.503Z,75.12
2022-11-17T15:35:12.876Z,75.03
2022-11-17T15:37:39.264Z,75.13
2022-11-17T15:40:05.644Z,75.24
2022-11-17T15:42:32.017Z,75.29
2022-11-17T15:44:58.343Z,75.46
2022-11-17T15:47:24.759Z,75.65
2022-11-17T15:49:51.124Z,75.63
2022-11-17T15:52:19.535Z,76.00
2022-11-17T15:54:43.905Z,76.48
2022-11-17T15:57:10.611Z,76.94
2022-11-17T15:59:36.957Z,77.21
2022-11-17T16:02:03.319Z,77.53
2022-11-17T16:04:29.669Z,77.74
2022-11-17T16:06:56.115Z,77.94
2022-11-17T16:09:22.434Z,78.13
2022-11-17T16:11:48.849Z,78.15
2022-11-17T16:14:15.268Z,78.23
2022-11-17T16:16:41.489Z,78.27
2022-11-17T16:19:07.826Z,78.58
2022-11-17T16:21:34.190Z,78.71
2022-11-17T16:24:00.602Z,79.20
2022-11-17T17:20:46.377Z,81.78
2022-11-17T17:23:12.767Z,81.81
2022-11-17T17:25:39.096Z,81.63
2022-11-17T17:28:05.456Z,81.63
2022-11-17T17:30:31.818Z,81.69
2022-11-17T17:32:58.281Z,81.70
2022-11-17T17:35:24.610Z,81.46
2022-11-17T17:37:50.965Z,81.12
2022-11-17T17:40:17.339Z,81.20
2022-11-17T17:42:43.758Z,81.55
2022-11-17T17:45:10.094Z,81.53
2022-11-17T17:47:36.489Z,82.00
2022-11-17T17:50:02.823Z,82.05
2022-11-17T17:52:29.231Z,81.60
2022-11-17T17:54:55.561Z,81.20
2022-11-17T17:57:21.984Z,82.30
2022-11-17T17:59:48.318Z,83.09
2022-11-17T18:02:14.712Z,83.21
2022-11-17T18:04:41.105Z,82.96
2022-11-17T18:07:07.525Z,83.00
2022-11-17T18:09:33.821Z,83.14
2022-11-17T18:12:00.216Z,82.85
2022-11-17T18:14:26.553Z,82.47
2022-11-17T18:16:52.908Z,82.64
2022-11-17T18:19:19.418Z,82.62
2022-11-17T18:21:45.644Z,82.83
2022-11-17T18:24:11.975Z,82.71
2022-11-17T18:26:38.364Z,82.50
2022-11-17T18:29:04.720Z,82.80
2022-11-17T18:31:31.072Z,83.06
2022-11-17T18:33:57.434Z,82.94
2022-11-17T18:36:23.792Z,82.77
2022-11-17T18:38:50.195Z,82.87
2022-11-17T18:41:16.577Z,82.98
2022-11-17T18:43:42.932Z,83.22
2022-11-17T18:46:09.300Z,83.38
2022-11-17T18:48:35.624Z,83.28
2022-11-17T18:51:30.301Z,83.41
2022-11-17T18:53:28.357Z,83.50
2022-11-17T18:55:54.708Z,83.29
2022-11-17T18:58:21.075Z,83.21
2022-11-17T19:00:47.498Z,83.45
2022-11-17T19:03:13.824Z,83.39
2022-11-17T19:05:40.179Z,83.34
2022-11-17T19:08:06.521Z,83.23
2022-11-17T19:10:32.948Z,83.40
2022-11-17T19:12:59.301Z,83.33
2022-11-17T19:15:25.651Z,83.09
2022-11-17T19:17:52.060Z,83.12
2022-11-17T19:20:18.407Z,83.18
2022-11-17T19:22:44.743Z,83.21
2022-11-17T19:25:11.113Z,83.13
2022-11-17T19:27:37.463Z,83.37
2022-11-17T19:30:03.820Z,83.47
2022-11-17T19:32:30.155Z,83.24
2022-11-17T19:35:01.409Z,83.36
2022-11-17T19:37:22.911Z,83.65
2022-11-17T19:39:49.290Z,83.90
2022-11-17T19:42:15.650Z,83.86
2022-11-17T19:44:42.005Z,83.50
2022-11-17T19:47:08.334Z,84.16
2022-11-17T19:49:34.710Z,85.38
2022-11-17T19:52:01.043Z,85.83
2022-11-17T19:54:27.433Z,86.40
2022-11-17T19:56:53.775Z,86.81
2022-11-17T19:59:20.249Z,86.68
2022-11-17T20:01:46.545Z,86.39
2022-11-17T20:04:12.852Z,86.30
2022-11-17T20:06:39.189Z,86.21
2022-11-17T20:09:05.547Z,86.08
2022-11-17T20:11:31.911Z,85.80
2022-11-17T20:13:58.301Z,85.58
2022-11-17T20:16:24.714Z,85.11
2022-11-17T20:18:51.015Z,84.87
2022-11-17T20:21:17.374Z,84.69
2022-11-17T20:23:43.745Z,84.37
2022-11-17T20:26:10.113Z,84.14
2022-11-17T20:28:36.493Z,84.39
2022-11-17T20:31:02.860Z,84.48
2022-11-17T20:33:29.251Z,84.24
2022-11-17T20:35:55.604Z,84.45
2022-11-17T20:38:21.991Z,84.95
2022-11-17T20:40:48.333Z,85.32
2022-11-17T20:43:14.846Z,85.90
2022-11-17T20:45:41.210Z,86.07
2022-11-17T20:48:07.597Z,86.07
2022-11-17T20:50:33.964Z,86.07
2022-11-17T20:53:00.350Z,86.29
2022-11-17T20:55:26.691Z,86.15
2022-11-17T20:57:53.049Z,86.54
2022-11-17T21:00:19.421Z,86.76
2022-11-17T21:02:45.819Z,86.64
2022-11-17T21:05:12.196Z,86.63
2022-11-17T21:07:38.580Z,86.43
2022-11-17T21:10:04.891Z,86.10
2022-11-17T21:12:31.348Z,85.80
2022-11-17T21:14:57.755Z,85.62
2022-11-17T21:17:24.142Z,85.77
2022-11-17T21:19:50.434Z,85.86
2022-11-17T21:22:16.828Z,85.77
2022-11-17T21:24:43.186Z,85.77
2022-11-17T21:27:09.539Z,85.90
2022-11-17T21:29:35.963Z,85.89
2022-11-17T21:32:02.379Z,85.89
2022-11-17T21:34:28.694Z,85.29
2022-11-17T21:36:55.083Z,84.81
2022-11-17T21:39:21.435Z,85.62
2022-11-17T21:41:47.819Z,86.00
2022-11-17T21:44:14.178Z,85.78
2022-11-17T21:46:40.556Z,85.64
2022-11-17T21:49:06.907Z,84.74
2022-11-17T21:51:33.559Z,85.01
2022-11-17T21:53:59.627Z,85.22
2022-11-17T21:56:26.006Z,85.28
2022-11-17T21:58:52.379Z,85.41
2022-11-17T22:01:18.768Z,85.90
2022-11-17T22:03:45.123Z,86.31
2022-11-17T22:06:11.514Z,87.36
2022-11-17T22:08:37.876Z,88.08
2022-11-17T22:11:04.231Z,88.93
2022-11-17T22:13:30.573Z,89.48
2022-11-17T22:15:57.008Z,89.67
2022-11-17T22:18:23.406Z,89.72
2022-11-17T22:20:49.789Z,89.59
2022-11-17T22:23:16.146Z,89.25
2022-11-17T22:25:45.612Z,88.94
2022-11-17T22:28:08.972Z,88.31
2022-11-17T22:30:35.358Z,87.87
2022-11-17T22:33:01.787Z,87.44
2022-11-17T22:35:28.146Z,87.33
2022-11-17T22:37:54.509Z,87.19
2022-11-17T22:40:20.869Z,87.14
2022-11-17T22:42:47.316Z,87.17
2022-11-17T22:45:13.660Z,87.31
2022-11-17T22:47:40.034Z,87.54
2022-11-17T22:50:06.473Z,88.09
2022-11-17T22:52:32.918Z,88.09
2022-11-17T22:54:59.330Z,87.59
2022-11-17T22:57:25.751Z,87.46
2022-11-17T22:59:52.146Z,87.12
2022-11-17T23:02:18.506Z,86.94
2022-11-17T23:04:44.898Z,86.67
2022-11-17T23:07:11.267Z,86.53
2022-11-17T23:09:37.684Z,85.78
2022-11-17T23:12:04.363Z,85.73
2022-11-17T23:14:30.767Z,85.62
2022-11-17T23:16:57.182Z,85.71
2022-11-17T23:19:23.622Z,85.59
2022-11-17T23:21:49.993Z,85.51
2022-11-17T23:24:16.322Z,85.15
2022-11-17T23:26:42.902Z,84.52
2022-11-17T23:29:09.370Z,84.61
2022-11-17T23:31:35.687Z,84.24
2022-11-17T23:34:02.085Z,83.92
2022-11-17T23:36:28.441Z,83.87
2022-11-17T23:38:54.828Z,84.48
2022-11-17T23:41:21.189Z,84.82
2022-11-17T23:43:47.568Z,84.69
2022-11-17T23:46:13.944Z,84.46
2022-11-17T23:48:40.322Z,84.70
2022-11-17T23:51:06.676Z,85.04
2022-11-17T23:53:33.059Z,85.59
2022-11-17T23:55:59.423Z,85.88
2022-11-17T23:58:25.780Z,86.43
